sensor_id;sensor_type;location;lat;lon;timestamp;temperature;humidity
10660;DHT22;5378;53.206;13.316;2023-07-16T00:00:59;23.60;99.90
10660;DHT22;5378;53.206;13.316;2023-07-16T00:03:46;23.60;99.90
10660;DHT22;5378;53.206;13.316;2023-07-16T00:06:34;23.50;99.90
10660;DHT22;5378;53.206;13.316;2023-07-16T00:09:21;23.40;99.90
10660;DHT22;5378;53.206;13.316;2023-07-16T00:12:09;23.40;99.90
10660;DHT22;5378;53.206;13.316;2023-07-16T00:14:56;23.30;99.90
10660;DHT22;5378;53.206;13.316;2023-07-16T00:17:43;23.30;99.90
10660;DHT22;5378;53.206;13.316;2023-07-16T00:20:31;23.30;99.90
10660;DHT22;5378;53.206;13.316;2023-07-16T00:23:19;23.20;99.90
10660;DHT22;5378;53.206;13.316;2023-07-16T00:26:06;23.20;99.90
10660;DHT22;5378;53.206;13.316;2023-07-16T00:28:54;23.10;99.90
10660;DHT22;5378;53.206;13.316;2023-07-16T00:31:41;23.10;99.90
10660;DHT22;5378;53.206;13.316;2023-07-16T00:34:28;23.00;99.90
10660;DHT22;5378;53.206;13.316;2023-07-16T00:37:14;23.00;99.90
10660;DHT22;5378;53.206;13.316;2023-07-16T00:40:04;23.00;99.90
10660;DHT22;5378;53.206;13.316;2023-07-16T00:42:51;22.90;99.90
10660;DHT22;5378;53.206;13.316;2023-07-16T00:45:40;22.80;99.90
10660;DHT22;5378;53.206;13.316;2023-07-16T00:48:28;22.80;99.90
10660;DHT22;5378;53.206;13.316;2023-07-16T00:51:16;22.80;99.90
10660;DHT22;5378;53.206;13.316;2023-07-16T00:54:03;22.80;99.90
10660;DHT22;5378;53.206;13.316;2023-07-16T00:56:52;22.70;99.90
10660;DHT22;5378;53.206;13.316;2023-07-16T00:59:39;22.60;99.90
10660;DHT22;5378;53.206;13.316;2023-07-16T01:02:26;22.60;99.90
10660;DHT22;5378;53.206;13.316;2023-07-16T01:05:13;22.50;99.90
10660;DHT22;5378;53.206;13.316;2023-07-16T01:08:04;22.70;99.90
10660;DHT22;5378;53.206;13.316;2023-07-16T01:10:54;22.60;99.90
10660;DHT22;5378;53.206;13.316;2023-07-16T01:13:44;22.60;99.90
10660;DHT22;5378;53.206;13.316;2023-07-16T01:16:31;22.60;99.90
10660;DHT22;5378;53.206;13.316;2023-07-16T01:19:18;22.70;99.90
10660;DHT22;5378;53.206;13.316;2023-07-16T01:22:22;22.60;99.90
10660;DHT22;5378;53.206;13.316;2023-07-16T01:25:36;22.50;99.90
10660;DHT22;5378;53.206;13.316;2023-07-16T01:28:37;22.40;99.90
10660;DHT22;5378;53.206;13.316;2023-07-16T01:31:30;22.40;99.90
10660;DHT22;5378;53.206;13.316;2023-07-16T01:34:19;22.40;99.90
10660;DHT22;5378;53.206;13.316;2023-07-16T01:37:07;22.40;99.90
10660;DHT22;5378;53.206;13.316;2023-07-16T01:39:54;22.40;99.90
10660;DHT22;5378;53.206;13.316;2023-07-16T01:42:41;22.40;99.90
10660;DHT22;5378;53.206;13.316;2023-07-16T01:45:29;22.40;99.90
10660;DHT22;5378;53.206;13.316;2023-07-16T01:48:27;22.50;99.90
10660;DHT22;5378;53.206;13.316;2023-07-16T01:51:15;22.50;99.90
10660;DHT22;5378;53.206;13.316;2023-07-16T01:54:02;22.60;99.90
10660;DHT22;5378;53.206;13.316;2023-07-16T01:56:50;22.70;99.90
10660;DHT22;5378;53.206;13.316;2023-07-16T01:59:37;22.70;99.90
10660;DHT22;5378;53.206;13.316;2023-07-16T02:02:24;22.80;99.90
10660;DHT22;5378;53.206;13.316;2023-07-16T02:05:13;22.90;99.90
10660;DHT22;5378;53.206;13.316;2023-07-16T02:08:00;23.00;99.90
10660;DHT22;5378;53.206;13.316;2023-07-16T02:10:51;23.20;99.90
10660;DHT22;5378;53.206;13.316;2023-07-16T02:13:38;23.30;99.90
10660;DHT22;5378;53.206;13.316;2023-07-16T02:16:25;23.30;99.90
10660;DHT22;5378;53.206;13.316;2023-07-16T02:19:12;23.40;99.90
10660;DHT22;5378;53.206;13.316;2023-07-16T02:22:01;23.50;99.90
10660;DHT22;5378;53.206;13.316;2023-07-16T02:24:49;23.50;99.90
10660;DHT22;5378;53.206;13.316;2023-07-16T02:27:36;23.50;99.90
10660;DHT22;5378;53.206;13.316;2023-07-16T02:30:23;23.40;99.90
10660;DHT22;5378;53.206;13.316;2023-07-16T02:33:09;23.40;99.90
10660;DHT22;5378;53.206;13.316;2023-07-16T02:35:56;23.40;99.90
10660;DHT22;5378;53.206;13.316;2023-07-16T02:38:45;23.40;99.90
10660;DHT22;5378;53.206;13.316;2023-07-16T02:41:31;23.30;99.90
10660;DHT22;5378;53.206;13.316;2023-07-16T02:44:18;23.30;99.90
10660;DHT22;5378;53.206;13.316;2023-07-16T02:47:06;23.30;99.90
10660;DHT22;5378;53.206;13.316;2023-07-16T02:49:53;23.30;99.90
10660;DHT22;5378;53.206;13.316;2023-07-16T02:52:40;23.20;99.90
10660;DHT22;5378;53.206;13.316;2023-07-16T02:55:28;23.10;99.90
10660;DHT22;5378;53.206;13.316;2023-07-16T02:58:15;23.00;99.90
10660;DHT22;5378;53.206;13.316;2023-07-16T03:01:03;22.90;99.90
10660;DHT22;5378;53.206;13.316;2023-07-16T03:03:50;22.80;99.90
10660;DHT22;5378;53.206;13.316;2023-07-16T03:06:37;22.60;99.90
10660;DHT22;5378;53.206;13.316;2023-07-16T03:09:24;22.60;99.90
10660;DHT22;5378;53.206;13.316;2023-07-16T03:12:13;22.60;99.90
10660;DHT22;5378;53.206;13.316;2023-07-16T03:15:00;22.50;99.90
10660;DHT22;5378;53.206;13.316;2023-07-16T03:17:48;22.40;99.90
10660;DHT22;5378;53.206;13.316;2023-07-16T03:20:36;22.50;99.90
10660;DHT22;5378;53.206;13.316;2023-07-16T03:23:23;22.40;99.90
10660;DHT22;5378;53.206;13.316;2023-07-16T03:26:11;22.40;99.90
10660;DHT22;5378;53.206;13.316;2023-07-16T03:29:00;22.20;99.90
10660;DHT22;5378;53.206;13.316;2023-07-16T03:31:47;22.10;99.90
10660;DHT22;5378;53.206;13.316;2023-07-16T03:34:37;22.10;99.90
10660;DHT22;5378;53.206;13.316;2023-07-16T03:37:24;22.10;99.90
10660;DHT22;5378;53.206;13.316;2023-07-16T03:40:13;22.10;99.90
10660;DHT22;5378;53.206;13.316;2023-07-16T03:43:03;22.20;99.90
10660;DHT22;5378;53.206;13.316;2023-07-16T03:45:53;22.10;99.90
10660;DHT22;5378;53.206;13.316;2023-07-16T03:48:40;22.00;99.90
10660;DHT22;5378;53.206;13.316;2023-07-16T03:51:28;22.00;99.90
10660;DHT22;5378;53.206;13.316;2023-07-16T03:54:14;22.00;99.90
10660;DHT22;5378;53.206;13.316;2023-07-16T03:57:02;21.80;99.90
10660;DHT22;5378;53.206;13.316;2023-07-16T03:59:51;21.70;99.90
10660;DHT22;5378;53.206;13.316;2023-07-16T04:02:40;21.70;99.90
10660;DHT22;5378;53.206;13.316;2023-07-16T04:05:33;21.80;99.90
10660;DHT22;5378;53.206;13.316;2023-07-16T04:08:20;21.80;99.90
10660;DHT22;5378;53.206;13.316;2023-07-16T04:11:07;21.80;99.90
10660;DHT22;5378;53.206;13.316;2023-07-16T04:13:54;21.80;99.90
10660;DHT22;5378;53.206;13.316;2023-07-16T04:16:41;21.90;99.90
10660;DHT22;5378;53.206;13.316;2023-07-16T04:19:29;21.90;99.90
10660;DHT22;5378;53.206;13.316;2023-07-16T04:22:16;21.80;99.90
10660;DHT22;5378;53.206;13.316;2023-07-16T04:25:04;21.70;99.90
10660;DHT22;5378;53.206;13.316;2023-07-16T04:27:51;21.70;99.90
10660;DHT22;5378;53.206;13.316;2023-07-16T04:30:38;21.70;99.90
10660;DHT22;5378;53.206;13.316;2023-07-16T04:33:25;21.70;99.90
10660;DHT22;5378;53.206;13.316;2023-07-16T04:36:13;21.90;99.90
10660;DHT22;5378;53.206;13.316;2023-07-16T04:39:00;21.90;99.90
10660;DHT22;5378;53.206;13.316;2023-07-16T04:41:47;21.90;99.90
10660;DHT22;5378;53.206;13.316;2023-07-16T04:44:34;21.80;99.90
10660;DHT22;5378;53.206;13.316;2023-07-16T04:47:21;21.70;99.90
10660;DHT22;5378;53.206;13.316;2023-07-16T04:50:08;21.70;99.90
10660;DHT22;5378;53.206;13.316;2023-07-16T04:52:57;21.90;99.90
10660;DHT22;5378;53.206;13.316;2023-07-16T04:55:44;22.10;99.90
10660;DHT22;5378;53.206;13.316;2023-07-16T04:58:32;22.20;99.90
10660;DHT22;5378;53.206;13.316;2023-07-16T05:01:19;22.20;99.90
10660;DHT22;5378;53.206;13.316;2023-07-16T05:04:06;22.20;99.90
10660;DHT22;5378;53.206;13.316;2023-07-16T05:06:53;22.10;99.90
10660;DHT22;5378;53.206;13.316;2023-07-16T05:09:41;22.10;99.90
10660;DHT22;5378;53.206;13.316;2023-07-16T05:12:29;22.10;99.90
10660;DHT22;5378;53.206;13.316;2023-07-16T05:15:16;22.00;99.90
10660;DHT22;5378;53.206;13.316;2023-07-16T05:18:03;22.10;99.90
10660;DHT22;5378;53.206;13.316;2023-07-16T05:20:50;22.20;99.90
10660;DHT22;5378;53.206;13.316;2023-07-16T05:23:37;22.20;99.90
10660;DHT22;5378;53.206;13.316;2023-07-16T05:26:26;22.30;99.90
10660;DHT22;5378;53.206;13.316;2023-07-16T05:29:13;22.50;99.90
10660;DHT22;5378;53.206;13.316;2023-07-16T05:32:00;22.50;99.90
10660;DHT22;5378;53.206;13.316;2023-07-16T05:34:48;22.50;99.90
10660;DHT22;5378;53.206;13.316;2023-07-16T05:37:35;22.50;99.90
10660;DHT22;5378;53.206;13.316;2023-07-16T05:40:22;22.50;99.90
10660;DHT22;5378;53.206;13.316;2023-07-16T05:43:10;22.50;99.90
10660;DHT22;5378;53.206;13.316;2023-07-16T05:45:57;22.60;99.90
10660;DHT22;5378;53.206;13.316;2023-07-16T05:48:44;22.60;99.90
10660;DHT22;5378;53.206;13.316;2023-07-16T05:51:31;22.50;99.90
10660;DHT22;5378;53.206;13.316;2023-07-16T05:54:18;22.40;99.90
10660;DHT22;5378;53.206;13.316;2023-07-16T05:57:06;22.50;99.90
10660;DHT22;5378;53.206;13.316;2023-07-16T05:59:54;22.60;99.90
10660;DHT22;5378;53.206;13.316;2023-07-16T06:02:41;22.60;99.90
10660;DHT22;5378;53.206;13.316;2023-07-16T06:05:28;22.70;99.90
10660;DHT22;5378;53.206;13.316;2023-07-16T06:08:18;22.60;99.90
10660;DHT22;5378;53.206;13.316;2023-07-16T06:11:06;22.60;99.90
10660;DHT22;5378;53.206;13.316;2023-07-16T06:13:53;22.50;99.90
10660;DHT22;5378;53.206;13.316;2023-07-16T06:16:42;22.50;99.90
10660;DHT22;5378;53.206;13.316;2023-07-16T06:19:29;22.50;99.90
10660;DHT22;5378;53.206;13.316;2023-07-16T06:22:16;22.50;99.90
10660;DHT22;5378;53.206;13.316;2023-07-16T06:25:03;22.50;99.90
10660;DHT22;5378;53.206;13.316;2023-07-16T06:27:51;22.60;99.90
10660;DHT22;5378;53.206;13.316;2023-07-16T06:30:38;22.60;99.90
10660;DHT22;5378;53.206;13.316;2023-07-16T06:33:27;22.80;99.90
10660;DHT22;5378;53.206;13.316;2023-07-16T06:36:14;22.90;99.90
10660;DHT22;5378;53.206;13.316;2023-07-16T06:39:02;23.20;99.90
10660;DHT22;5378;53.206;13.316;2023-07-16T06:41:50;25.90;99.90
10660;DHT22;5378;53.206;13.316;2023-07-16T06:44:39;28.30;99.90
10660;DHT22;5378;53.206;13.316;2023-07-16T06:47:26;29.20;99.90
10660;DHT22;5378;53.206;13.316;2023-07-16T06:50:15;30.60;99.90
10660;DHT22;5378;53.206;13.316;2023-07-16T06:53:02;32.00;99.90
10660;DHT22;5378;53.206;13.316;2023-07-16T06:55:49;33.50;99.90
10660;DHT22;5378;53.206;13.316;2023-07-16T06:58:36;33.40;99.90
10660;DHT22;5378;53.206;13.316;2023-07-16T07:01:22;33.70;99.90
10660;DHT22;5378;53.206;13.316;2023-07-16T07:04:10;34.80;99.90
10660;DHT22;5378;53.206;13.316;2023-07-16T07:06:58;36.00;99.90
10660;DHT22;5378;53.206;13.316;2023-07-16T07:09:47;37.00;99.90
10660;DHT22;5378;53.206;13.316;2023-07-16T07:12:35;35.90;99.90
10660;DHT22;5378;53.206;13.316;2023-07-16T07:15:23;34.10;99.90
10660;DHT22;5378;53.206;13.316;2023-07-16T07:18:10;32.20;99.90
10660;DHT22;5378;53.206;13.316;2023-07-16T07:20:57;30.80;99.90
10660;DHT22;5378;53.206;13.316;2023-07-16T07:23:46;30.40;99.90
10660;DHT22;5378;53.206;13.316;2023-07-16T07:26:33;31.90;99.90
10660;DHT22;5378;53.206;13.316;2023-07-16T07:29:20;33.80;99.90
10660;DHT22;5378;53.206;13.316;2023-07-16T07:32:07;34.90;99.90
10660;DHT22;5378;53.206;13.316;2023-07-16T07:34:55;34.90;99.90
10660;DHT22;5378;53.206;13.316;2023-07-16T07:37:41;33.80;99.90
10660;DHT22;5378;53.206;13.316;2023-07-16T07:40:30;32.50;99.90
10660;DHT22;5378;53.206;13.316;2023-07-16T07:43:17;31.20;99.90
10660;DHT22;5378;53.206;13.316;2023-07-16T07:46:04;30.80;99.90
10660;DHT22;5378;53.206;13.316;2023-07-16T07:48:51;31.30;99.90
10660;DHT22;5378;53.206;13.316;2023-07-16T07:51:40;31.50;99.90
10660;DHT22;5378;53.206;13.316;2023-07-16T07:54:27;31.70;99.90
10660;DHT22;5378;53.206;13.316;2023-07-16T07:57:15;32.40;99.90
10660;DHT22;5378;53.206;13.316;2023-07-16T08:00:04;34.20;99.90
10660;DHT22;5378;53.206;13.316;2023-07-16T08:02:57;35.70;99.90
10660;DHT22;5378;53.206;13.316;2023-07-16T08:05:44;36.50;99.30
10660;DHT22;5378;53.206;13.316;2023-07-16T08:08:31;36.00;98.20
10660;DHT22;5378;53.206;13.316;2023-07-16T08:11:18;35.90;98.30
10660;DHT22;5378;53.206;13.316;2023-07-16T08:14:06;36.20;96.80
10660;DHT22;5378;53.206;13.316;2023-07-16T08:16:54;36.60;96.60
10660;DHT22;5378;53.206;13.316;2023-07-16T08:19:42;37.20;95.70
10660;DHT22;5378;53.206;13.316;2023-07-16T08:22:30;37.60;95.40
10660;DHT22;5378;53.206;13.316;2023-07-16T08:25:18;37.70;94.80
10660;DHT22;5378;53.206;13.316;2023-07-16T08:28:05;37.80;94.10
10660;DHT22;5378;53.206;13.316;2023-07-16T08:30:54;37.90;92.60
10660;DHT22;5378;53.206;13.316;2023-07-16T08:33:41;38.10;93.10
10660;DHT22;5378;53.206;13.316;2023-07-16T08:36:28;38.20;92.70
10660;DHT22;5378;53.206;13.316;2023-07-16T08:39:15;38.50;92.20
10660;DHT22;5378;53.206;13.316;2023-07-16T08:42:06;38.70;91.70
10660;DHT22;5378;53.206;13.316;2023-07-16T08:44:56;38.70;90.00
10660;DHT22;5378;53.206;13.316;2023-07-16T08:47:44;37.50;91.00
10660;DHT22;5378;53.206;13.316;2023-07-16T08:50:31;37.00;90.80
10660;DHT22;5378;53.206;13.316;2023-07-16T08:53:19;37.30;92.00
10660;DHT22;5378;53.206;13.316;2023-07-16T08:56:06;37.60;90.40
10660;DHT22;5378;53.206;13.316;2023-07-16T08:58:54;37.60;89.20
10660;DHT22;5378;53.206;13.316;2023-07-16T09:01:43;37.50;89.20
10660;DHT22;5378;53.206;13.316;2023-07-16T09:04:32;37.70;89.70
10660;DHT22;5378;53.206;13.316;2023-07-16T09:07:19;37.40;87.90
10660;DHT22;5378;53.206;13.316;2023-07-16T09:10:11;36.60;90.20
10660;DHT22;5378;53.206;13.316;2023-07-16T09:12:58;36.50;90.20
10660;DHT22;5378;53.206;13.316;2023-07-16T09:15:50;36.50;91.10
10660;DHT22;5378;53.206;13.316;2023-07-16T09:18:40;36.20;87.60
10660;DHT22;5378;53.206;13.316;2023-07-16T09:21:31;35.80;89.50
10660;DHT22;5378;53.206;13.316;2023-07-16T09:24:20;35.20;90.90
10660;DHT22;5378;53.206;13.316;2023-07-16T09:27:11;34.60;89.80
10660;DHT22;5378;53.206;13.316;2023-07-16T09:29:59;33.30;92.30
10660;DHT22;5378;53.206;13.316;2023-07-16T09:32:49;32.40;94.10
10660;DHT22;5378;53.206;13.316;2023-07-16T09:35:36;31.70;93.60
10660;DHT22;5378;53.206;13.316;2023-07-16T09:38:25;31.30;96.60
10660;DHT22;5378;53.206;13.316;2023-07-16T09:41:13;31.00;95.30
10660;DHT22;5378;53.206;13.316;2023-07-16T09:44:01;30.90;96.90
10660;DHT22;5378;53.206;13.316;2023-07-16T09:46:48;30.90;94.00
10660;DHT22;5378;53.206;13.316;2023-07-16T09:49:35;30.80;96.60
10660;DHT22;5378;53.206;13.316;2023-07-16T09:52:23;30.70;96.30
10660;DHT22;5378;53.206;13.316;2023-07-16T09:55:14;30.40;96.80
10660;DHT22;5378;53.206;13.316;2023-07-16T09:58:07;30.00;97.40
10660;DHT22;5378;53.206;13.316;2023-07-16T10:00:56;29.60;96.70
10660;DHT22;5378;53.206;13.316;2023-07-16T10:03:48;29.40;98.30
10660;DHT22;5378;53.206;13.316;2023-07-16T10:06:36;29.10;95.10
10660;DHT22;5378;53.206;13.316;2023-07-16T10:09:38;28.80;95.90
10660;DHT22;5378;53.206;13.316;2023-07-16T10:12:27;28.70;95.50
10660;DHT22;5378;53.206;13.316;2023-07-16T10:15:25;28.40;96.90
10660;DHT22;5378;53.206;13.316;2023-07-16T10:18:23;28.10;99.70
10660;DHT22;5378;53.206;13.316;2023-07-16T10:21:10;28.40;98.70
10660;DHT22;5378;53.206;13.316;2023-07-16T10:23:58;28.60;97.00
10660;DHT22;5378;53.206;13.316;2023-07-16T10:26:45;28.60;97.20
10660;DHT22;5378;53.206;13.316;2023-07-16T10:29:34;28.60;97.00
10660;DHT22;5378;53.206;13.316;2023-07-16T10:32:25;28.70;97.60
10660;DHT22;5378;53.206;13.316;2023-07-16T10:35:13;28.80;96.00
10660;DHT22;5378;53.206;13.316;2023-07-16T10:38:00;28.90;97.70
10660;DHT22;5378;53.206;13.316;2023-07-16T10:40:47;29.00;97.40
10660;DHT22;5378;53.206;13.316;2023-07-16T10:43:34;29.00;95.80
10660;DHT22;5378;53.206;13.316;2023-07-16T10:46:22;28.90;97.10
10660;DHT22;5378;53.206;13.316;2023-07-16T10:49:09;29.00;97.40
10660;DHT22;5378;53.206;13.316;2023-07-16T10:51:58;29.20;97.10
10660;DHT22;5378;53.206;13.316;2023-07-16T10:54:46;29.20;97.20
10660;DHT22;5378;53.206;13.316;2023-07-16T10:57:33;29.10;96.00
10660;DHT22;5378;53.206;13.316;2023-07-16T11:00:22;29.10;97.00
10660;DHT22;5378;53.206;13.316;2023-07-16T11:03:10;29.10;95.70
10660;DHT22;5378;53.206;13.316;2023-07-16T11:06:06;29.00;97.70
10660;DHT22;5378;53.206;13.316;2023-07-16T11:08:53;29.10;95.50
10660;DHT22;5378;53.206;13.316;2023-07-16T11:11:40;29.00;96.90
10660;DHT22;5378;53.206;13.316;2023-07-16T11:14:27;28.90;96.30
10660;DHT22;5378;53.206;13.316;2023-07-16T11:17:15;28.70;94.30
10660;DHT22;5378;53.206;13.316;2023-07-16T11:20:07;28.60;94.10
10660;DHT22;5378;53.206;13.316;2023-07-16T11:22:58;28.40;94.00
10660;DHT22;5378;53.206;13.316;2023-07-16T11:25:46;28.40;92.80
10660;DHT22;5378;53.206;13.316;2023-07-16T11:28:37;28.20;93.80
10660;DHT22;5378;53.206;13.316;2023-07-16T11:31:24;28.20;93.30
10660;DHT22;5378;53.206;13.316;2023-07-16T11:34:12;28.20;93.80
10660;DHT22;5378;53.206;13.316;2023-07-16T11:37:11;28.10;93.60
10660;DHT22;5378;53.206;13.316;2023-07-16T11:39:59;28.00;91.20
10660;DHT22;5378;53.206;13.316;2023-07-16T11:42:46;27.70;91.70
10660;DHT22;5378;53.206;13.316;2023-07-16T11:45:33;28.10;93.10
10660;DHT22;5378;53.206;13.316;2023-07-16T11:48:21;28.20;93.60
10660;DHT22;5378;53.206;13.316;2023-07-16T11:51:08;28.40;92.70
10660;DHT22;5378;53.206;13.316;2023-07-16T11:53:56;28.40;92.10
10660;DHT22;5378;53.206;13.316;2023-07-16T11:56:43;28.30;91.30
10660;DHT22;5378;53.206;13.316;2023-07-16T11:59:32;28.40;92.80
10660;DHT22;5378;53.206;13.316;2023-07-16T12:02:19;28.50;91.30
10660;DHT22;5378;53.206;13.316;2023-07-16T12:05:07;28.50;92.70
10660;DHT22;5378;53.206;13.316;2023-07-16T12:07:55;28.50;92.60
10660;DHT22;5378;53.206;13.316;2023-07-16T12:10:43;28.60;92.80
10660;DHT22;5378;53.206;13.316;2023-07-16T12:13:31;28.60;93.10
10660;DHT22;5378;53.206;13.316;2023-07-16T12:16:17;28.70;93.70
10660;DHT22;5378;53.206;13.316;2023-07-16T12:19:05;28.90;93.80
10660;DHT22;5378;53.206;13.316;2023-07-16T12:21:52;29.20;93.40
10660;DHT22;5378;53.206;13.316;2023-07-16T12:24:40;29.30;91.60
10660;DHT22;5378;53.206;13.316;2023-07-16T12:27:28;29.20;92.30
10660;DHT22;5378;53.206;13.316;2023-07-16T12:30:15;29.20;92.40
10660;DHT22;5378;53.206;13.316;2023-07-16T12:33:02;29.20;91.80
10660;DHT22;5378;53.206;13.316;2023-07-16T12:35:49;29.30;94.00
10660;DHT22;5378;53.206;13.316;2023-07-16T12:38:36;29.20;91.60
10660;DHT22;5378;53.206;13.316;2023-07-16T12:41:23;29.10;92.90
10660;DHT22;5378;53.206;13.316;2023-07-16T12:44:12;29.00;93.50
10660;DHT22;5378;53.206;13.316;2023-07-16T12:46:59;28.90;93.20
10660;DHT22;5378;53.206;13.316;2023-07-16T12:49:46;29.00;93.30
10660;DHT22;5378;53.206;13.316;2023-07-16T12:52:33;28.90;92.70
10660;DHT22;5378;53.206;13.316;2023-07-16T12:55:20;28.80;92.70
10660;DHT22;5378;53.206;13.316;2023-07-16T12:58:09;28.70;93.00
10660;DHT22;5378;53.206;13.316;2023-07-16T13:00:57;28.30;92.20
10660;DHT22;5378;53.206;13.316;2023-07-16T13:03:44;28.20;92.60
10660;DHT22;5378;53.206;13.316;2023-07-16T13:06:31;28.00;92.80
10660;DHT22;5378;53.206;13.316;2023-07-16T13:09:18;28.10;93.10
10660;DHT22;5378;53.206;13.316;2023-07-16T13:12:06;28.30;93.60
10660;DHT22;5378;53.206;13.316;2023-07-16T13:14:53;28.30;93.50
10660;DHT22;5378;53.206;13.316;2023-07-16T13:17:42;28.10;92.70
10660;DHT22;5378;53.206;13.316;2023-07-16T13:20:29;28.00;93.70
10660;DHT22;5378;53.206;13.316;2023-07-16T13:23:16;27.90;93.70
10660;DHT22;5378;53.206;13.316;2023-07-16T13:26:03;27.90;93.00
10660;DHT22;5378;53.206;13.316;2023-07-16T13:28:50;28.10;93.40
10660;DHT22;5378;53.206;13.316;2023-07-16T13:31:38;28.10;92.70
10660;DHT22;5378;53.206;13.316;2023-07-16T13:34:26;28.10;92.80
10660;DHT22;5378;53.206;13.316;2023-07-16T13:37:13;28.30;92.90
10660;DHT22;5378;53.206;13.316;2023-07-16T13:40:00;28.60;92.00
10660;DHT22;5378;53.206;13.316;2023-07-16T13:42:48;28.80;92.00
10660;DHT22;5378;53.206;13.316;2023-07-16T13:45:35;28.70;90.70
10660;DHT22;5378;53.206;13.316;2023-07-16T13:48:22;28.70;93.00
10660;DHT22;5378;53.206;13.316;2023-07-16T13:51:11;28.60;90.60
10660;DHT22;5378;53.206;13.316;2023-07-16T13:53:58;28.60;88.90
10660;DHT22;5378;53.206;13.316;2023-07-16T13:56:45;28.70;91.30
10660;DHT22;5378;53.206;13.316;2023-07-16T13:59:32;28.90;88.60
10660;DHT22;5378;53.206;13.316;2023-07-16T14:02:19;29.10;86.40
10660;DHT22;5378;53.206;13.316;2023-07-16T14:05:07;28.90;86.10
10660;DHT22;5378;53.206;13.316;2023-07-16T14:07:56;28.60;87.90
10660;DHT22;5378;53.206;13.316;2023-07-16T14:10:43;28.30;87.10
10660;DHT22;5378;53.206;13.316;2023-07-16T14:13:31;28.20;87.10
10660;DHT22;5378;53.206;13.316;2023-07-16T14:16:19;28.30;89.70
10660;DHT22;5378;53.206;13.316;2023-07-16T14:19:06;28.50;88.30
10660;DHT22;5378;53.206;13.316;2023-07-16T14:21:53;28.60;85.20
10660;DHT22;5378;53.206;13.316;2023-07-16T14:24:42;28.70;85.50
10660;DHT22;5378;53.206;13.316;2023-07-16T14:27:29;28.70;84.50
10660;DHT22;5378;53.206;13.316;2023-07-16T14:30:17;28.70;85.60
10660;DHT22;5378;53.206;13.316;2023-07-16T14:33:05;28.70;84.90
10660;DHT22;5378;53.206;13.316;2023-07-16T14:35:52;28.90;85.80
10660;DHT22;5378;53.206;13.316;2023-07-16T14:38:39;29.00;85.90
10660;DHT22;5378;53.206;13.316;2023-07-16T14:41:27;29.00;85.20
10660;DHT22;5378;53.206;13.316;2023-07-16T14:44:15;29.00;85.60
10660;DHT22;5378;53.206;13.316;2023-07-16T14:47:02;28.80;85.50
10660;DHT22;5378;53.206;13.316;2023-07-16T14:49:49;28.50;89.70
10660;DHT22;5378;53.206;13.316;2023-07-16T14:52:36;28.40;86.90
10660;DHT22;5378;53.206;13.316;2023-07-16T14:55:24;28.30;86.70
10660;DHT22;5378;53.206;13.316;2023-07-16T14:58:12;28.30;88.90
10660;DHT22;5378;53.206;13.316;2023-07-16T15:00:59;28.20;88.60
10660;DHT22;5378;53.206;13.316;2023-07-16T15:03:49;28.20;87.80
10660;DHT22;5378;53.206;13.316;2023-07-16T15:06:36;28.30;88.50
10660;DHT22;5378;53.206;13.316;2023-07-16T15:09:24;28.40;88.40
10660;DHT22;5378;53.206;13.316;2023-07-16T15:12:11;28.70;86.00
10660;DHT22;5378;53.206;13.316;2023-07-16T15:15:00;28.60;85.60
10660;DHT22;5378;53.206;13.316;2023-07-16T15:17:47;28.40;83.90
10660;DHT22;5378;53.206;13.316;2023-07-16T15:20:34;28.40;84.10
10660;DHT22;5378;53.206;13.316;2023-07-16T15:23:21;28.50;84.00
10660;DHT22;5378;53.206;13.316;2023-07-16T15:26:08;28.60;83.20
10660;DHT22;5378;53.206;13.316;2023-07-16T15:28:57;28.60;83.70
10660;DHT22;5378;53.206;13.316;2023-07-16T15:31:45;28.60;83.90
10660;DHT22;5378;53.206;13.316;2023-07-16T15:34:32;28.60;82.80
10660;DHT22;5378;53.206;13.316;2023-07-16T15:37:19;28.60;82.60
10660;DHT22;5378;53.206;13.316;2023-07-16T15:40:12;28.50;82.10
10660;DHT22;5378;53.206;13.316;2023-07-16T15:42:59;28.50;81.40
10660;DHT22;5378;53.206;13.316;2023-07-16T15:45:47;28.60;81.70
10660;DHT22;5378;53.206;13.316;2023-07-16T15:48:35;28.50;80.70
10660;DHT22;5378;53.206;13.316;2023-07-16T15:51:23;28.40;81.10
10660;DHT22;5378;53.206;13.316;2023-07-16T15:54:10;28.30;83.20
10660;DHT22;5378;53.206;13.316;2023-07-16T15:56:57;28.20;82.70
10660;DHT22;5378;53.206;13.316;2023-07-16T15:59:45;28.10;83.10
10660;DHT22;5378;53.206;13.316;2023-07-16T16:02:32;28.00;83.00
10660;DHT22;5378;53.206;13.316;2023-07-16T16:05:21;27.80;79.70
10660;DHT22;5378;53.206;13.316;2023-07-16T16:08:16;27.70;82.10
10660;DHT22;5378;53.206;13.316;2023-07-16T16:11:04;27.80;83.30
10660;DHT22;5378;53.206;13.316;2023-07-16T16:13:51;27.80;81.80
10660;DHT22;5378;53.206;13.316;2023-07-16T16:16:39;27.80;82.80
10660;DHT22;5378;53.206;13.316;2023-07-16T16:19:30;27.70;81.00
10660;DHT22;5378;53.206;13.316;2023-07-16T16:22:19;27.60;79.60
10660;DHT22;5378;53.206;13.316;2023-07-16T16:25:07;27.60;80.30
10660;DHT22;5378;53.206;13.316;2023-07-16T16:27:54;27.60;81.70
10660;DHT22;5378;53.206;13.316;2023-07-16T16:30:42;27.40;82.90
10660;DHT22;5378;53.206;13.316;2023-07-16T16:33:29;27.20;83.10
10660;DHT22;5378;53.206;13.316;2023-07-16T16:36:16;27.10;83.00
10660;DHT22;5378;53.206;13.316;2023-07-16T16:39:05;27.10;83.60
10660;DHT22;5378;53.206;13.316;2023-07-16T16:41:52;27.20;84.20
10660;DHT22;5378;53.206;13.316;2023-07-16T16:44:39;27.20;84.20
10660;DHT22;5378;53.206;13.316;2023-07-16T16:47:27;27.10;83.50
10660;DHT22;5378;53.206;13.316;2023-07-16T16:50:13;27.20;84.70
10660;DHT22;5378;53.206;13.316;2023-07-16T16:53:02;27.30;84.30
10660;DHT22;5378;53.206;13.316;2023-07-16T16:55:50;27.30;85.00
10660;DHT22;5378;53.206;13.316;2023-07-16T16:58:38;27.30;84.40
10660;DHT22;5378;53.206;13.316;2023-07-16T17:01:25;27.30;84.70
10660;DHT22;5378;53.206;13.316;2023-07-16T17:04:12;27.20;85.10
10660;DHT22;5378;53.206;13.316;2023-07-16T17:06:59;27.10;85.30
10660;DHT22;5378;53.206;13.316;2023-07-16T17:09:47;26.90;84.20
10660;DHT22;5378;53.206;13.316;2023-07-16T17:12:36;26.70;86.80
10660;DHT22;5378;53.206;13.316;2023-07-16T17:15:24;26.50;84.80
10660;DHT22;5378;53.206;13.316;2023-07-16T17:18:11;26.40;85.50
10660;DHT22;5378;53.206;13.316;2023-07-16T17:20:59;26.20;87.20
10660;DHT22;5378;53.206;13.316;2023-07-16T17:23:46;26.10;89.90
10660;DHT22;5378;53.206;13.316;2023-07-16T17:26:36;25.90;89.50
10660;DHT22;5378;53.206;13.316;2023-07-16T17:29:24;25.80;85.90
10660;DHT22;5378;53.206;13.316;2023-07-16T17:32:13;25.70;88.40
10660;DHT22;5378;53.206;13.316;2023-07-16T17:35:00;25.70;88.20
10660;DHT22;5378;53.206;13.316;2023-07-16T17:37:48;25.60;87.50
10660;DHT22;5378;53.206;13.316;2023-07-16T17:40:35;25.60;88.80